USCGC Elm — NRPK — position and weather

sailwx.info

Track history (hours):
 
Tides and Currents Weather Stations Pressure Air Temp Water Temp Dewpoint Dewpoint Depression Visibility Wind Speed Wind Dir Waves Ship Positions

USCGC Elm

Last reported at 2016-Aug-28 18:22 UTC. Time now 2016-Aug-28 18:57 UTC.
Position N 36°55' W 076°11'.

Length 68 m; draft 4 m.

Type: Military. MMSI: 366951000.

Date/timePositionNaut miles runAvg speedWind from/ knotsBaromVisibWave heightAir tempDewpointWater temp
2016-Aug-28 18:22N 36°55' W 076°11'0 0.0
2016-Aug-28 17:16N 36°55' W 076°11'0 0.0
2016-Aug-28 16:31N 36°55' W 076°11'0 0.0
2016-Aug-28 15:31N 36°55' W 076°11'0 0.0
2016-Aug-28 14:28N 36°55' W 076°11'0 0.0
2016-Aug-28 13:31N 36°55' W 076°11'0 0.0
2016-Aug-28 12:28N 36°55' W 076°11'0 0.0
2016-Aug-28 11:32N 36°55' W 076°11'0 0.0
2016-Aug-28 04:28N 36°55' W 076°11'0 0.0
2016-Aug-28 00:07N 36°55' W 076°11'0 0.0
2016-Aug-27 23:31N 36°55' W 076°11'0 0.0
2016-Aug-27 22:29N 36°55' W 076°11'0 0.0
2016-Aug-27 21:31N 36°55' W 076°11'0 0.0
2016-Aug-27 20:26N 36°55' W 076°11'0 0.0
2016-Aug-27 19:32N 36°55' W 076°11'0 0.0
2016-Aug-27 18:32N 36°55' W 076°11'0 0.0
2016-Aug-27 17:31N 36°55' W 076°11'0 0.0
2016-Aug-27 16:22N 36°55' W 076°11'0 0.0
2016-Aug-27 15:31N 36°55' W 076°11'0 0.0
2016-Aug-27 14:31N 36°55' W 076°11'0 0.0
2016-Aug-27 13:23N 36°55' W 076°11'0 0.0
2016-Aug-27 12:28N 36°55' W 076°11'0 0.0
2016-Aug-27 11:22N 36°55' W 076°11'0 0.0
2016-Aug-27 10:26N 36°55' W 076°11'0 0.0
2016-Aug-27 09:20N 36°55' W 076°11'0 0.0
2016-Aug-27 01:07N 36°55' W 076°11'0 0.0
2016-Aug-26 23:22N 36°55' W 076°11'0 0.0
2016-Aug-26 22:26N 36°55' W 076°11'0 0.0
2016-Aug-26 21:20N 36°55' W 076°11'0 0.0
2016-Aug-26 20:29N 36°55' W 076°11'0 0.0
2016-Aug-26 19:31N 36°55' W 076°11'0 0.0
2016-Aug-26 18:22N 36°55' W 076°11'0 0.0
2016-Aug-26 17:13N 36°55' W 076°11'0 0.0
2016-Aug-26 16:31N 36°55' W 076°11'0 0.0
2016-Aug-26 15:25N 36°55' W 076°11'0 0.0
2016-Aug-26 14:31N 36°55' W 076°11'0 0.0
2016-Aug-26 13:29N 36°55' W 076°11'0 0.0
2016-Aug-26 12:32N 36°55' W 076°11'0 0.0
2016-Aug-26 11:33N 36°55' W 076°11'0 0.0
2016-Aug-25 23:32N 36°55' W 076°11'0 0.0
2016-Aug-25 21:18N 36°55' W 076°11'0 0.0
2016-Aug-25 20:30N 36°55' W 076°11'0 0.0
2016-Aug-25 19:32N 36°55' W 076°11'0 0.0
2016-Aug-25 18:17N 36°55' W 076°11'0 0.0
2016-Aug-25 17:29N 36°55' W 076°11'0 0.0
2016-Aug-25 16:32N 36°55' W 076°11'0 0.0
2016-Aug-25 15:32N 36°55' W 076°11'0 0.0
2016-Aug-25 14:33N 36°55' W 076°11'0 0.0
2016-Aug-25 13:32N 36°55' W 076°11'0 0.0
2016-Aug-24 21:25N 36°55' W 076°11'4 4.8
2016-Aug-24 20:33N 36°59' W 076°08'1110.8
2016-Aug-24 19:33N 36°54' W 075°56'9 9.2
2016-Aug-24 18:33N 36°46' W 075°51'7 2.3
2016-Aug-24 15:33N 36°52' W 075°54'14 4.4
2016-Aug-24 12:30N 36°55' W 076°11'0 0.2
2016-Aug-24 11:32N 36°55' W 076°11'0 0.0
2016-Aug-24 09:07N 36°55' W 076°11'0 0.0
2016-Aug-24 08:11N 36°55' W 076°11'0 0.0
2016-Aug-24 07:25N 36°55' W 076°11'0 0.0
2016-Aug-24 06:32N 36°55' W 076°11'0 0.0
2016-Aug-24 04:17N 36°55' W 076°11'0 0.0
2016-Aug-24 03:29N 36°55' W 076°11'0 0.0
2016-Aug-24 02:28N 36°55' W 076°11'8 1.5
2016-Aug-23 21:12N 37°03' W 076°08'0 0.2
2016-Aug-23 20:33N 37°03' W 076°08'0 0.1
2016-Aug-23 19:25N 37°02' W 076°08'4 0.9
2016-Aug-23 15:13N 36°59' W 076°10'1 0.6
2016-Aug-23 13:33N 36°58' W 076°09'4 3.4
2016-Aug-23 12:31N 36°55' W 076°11'0 0.0
2016-Aug-23 11:25N 36°55' W 076°11'0 0.0
2016-Aug-23 02:24N 36°55' W 076°11'0 0.0
2016-Aug-22 23:25N 36°55' W 076°11'0 0.0
2016-Aug-22 22:28N 36°55' W 076°11'0 0.0
2016-Aug-22 21:25N 36°55' W 076°11'0 0.0
2016-Aug-22 20:22N 36°55' W 076°11'0 0.0
2016-Aug-22 19:28N 36°55' W 076°11'0 0.0
2016-Aug-22 18:33N 36°55' W 076°11'0 0.0
2016-Aug-22 17:33N 36°55' W 076°11'0 0.0
2016-Aug-22 16:33N 36°55' W 076°11'0 0.0
2016-Aug-22 15:31N 36°55' W 076°11'0 0.0
2016-Aug-22 14:24N 36°55' W 076°11'0 0.0
2016-Aug-22 13:33N 36°55' W 076°11'0 0.0
2016-Aug-22 12:33N 36°55' W 076°11'0 0.0
2016-Aug-22 11:33N 36°55' W 076°11'0 0.0
2016-Aug-22 07:30N 36°55' W 076°11'0 0.0
2016-Aug-21 22:33N 36°55' W 076°11'0 0.0
2016-Aug-21 20:24N 36°55' W 076°11'0 0.0
2016-Aug-21 19:30N 36°55' W 076°11'5 2.5
2016-Aug-21 17:33N 36°59' W 076°06'1312.4
2016-Aug-21 16:30N 36°53' W 075°52'  
2016-Aug-18 20:29N 34°42' W 076°41'0 0.0
2016-Aug-18 19:32N 34°42' W 076°41'0 0.0
2016-Aug-18 18:32N 34°42' W 076°41'  
Track history (hours):
 
Tides and Currents Weather Stations Pressure Air Temp Water Temp Dewpoint Dewpoint Depression Visibility Wind Speed Wind Dir Waves Ship Positions

USCGC Elm

Last reported at 2016-Aug-28 18:22 UTC. Time now 2016-Aug-28 18:57 UTC.
Position N 36°55' W 076°11'.

Length 68 m; draft 4 m.

Type: Military. MMSI: 366951000.

Date/timePositionNaut miles runAvg speedWind from/ knotsBaromVisibWave heightAir tempDewpointWater temp
2016-Aug-28 18:22N 36°55' W 076°11'0 0.0
2016-Aug-28 17:16N 36°55' W 076°11'0 0.0
2016-Aug-28 16:31N 36°55' W 076°11'0 0.0
2016-Aug-28 15:31N 36°55' W 076°11'0 0.0
2016-Aug-28 14:28N 36°55' W 076°11'0 0.0
2016-Aug-28 13:31N 36°55' W 076°11'0 0.0
2016-Aug-28 12:28N 36°55' W 076°11'0 0.0
2016-Aug-28 11:32N 36°55' W 076°11'0 0.0
2016-Aug-28 04:28N 36°55' W 076°11'0 0.0
2016-Aug-28 00:07N 36°55' W 076°11'0 0.0
2016-Aug-27 23:31N 36°55' W 076°11'0 0.0
2016-Aug-27 22:29N 36°55' W 076°11'0 0.0
2016-Aug-27 21:31N 36°55' W 076°11'0 0.0
2016-Aug-27 20:26N 36°55' W 076°11'0 0.0
2016-Aug-27 19:32N 36°55' W 076°11'0 0.0
2016-Aug-27 18:32N 36°55' W 076°11'0 0.0
2016-Aug-27 17:31N 36°55' W 076°11'0 0.0
2016-Aug-27 16:22N 36°55' W 076°11'0 0.0
2016-Aug-27 15:31N 36°55' W 076°11'0 0.0
2016-Aug-27 14:31N 36°55' W 076°11'0 0.0
2016-Aug-27 13:23N 36°55' W 076°11'0 0.0
2016-Aug-27 12:28N 36°55' W 076°11'0 0.0
2016-Aug-27 11:22N 36°55' W 076°11'0 0.0
2016-Aug-27 10:26N 36°55' W 076°11'0 0.0
2016-Aug-27 09:20N 36°55' W 076°11'0 0.0
2016-Aug-27 01:07N 36°55' W 076°11'0 0.0
2016-Aug-26 23:22N 36°55' W 076°11'0 0.0
2016-Aug-26 22:26N 36°55' W 076°11'0 0.0
2016-Aug-26 21:20N 36°55' W 076°11'0 0.0
2016-Aug-26 20:29N 36°55' W 076°11'0 0.0
2016-Aug-26 19:31N 36°55' W 076°11'0 0.0
2016-Aug-26 18:22N 36°55' W 076°11'0 0.0
2016-Aug-26 17:13N 36°55' W 076°11'0 0.0
2016-Aug-26 16:31N 36°55' W 076°11'0 0.0
2016-Aug-26 15:25N 36°55' W 076°11'0 0.0
2016-Aug-26 14:31N 36°55' W 076°11'0 0.0
2016-Aug-26 13:29N 36°55' W 076°11'0 0.0
2016-Aug-26 12:32N 36°55' W 076°11'0 0.0
2016-Aug-26 11:33N 36°55' W 076°11'0 0.0
2016-Aug-25 23:32N 36°55' W 076°11'0 0.0
2016-Aug-25 21:18N 36°55' W 076°11'0 0.0
2016-Aug-25 20:30N 36°55' W 076°11'0 0.0
2016-Aug-25 19:32N 36°55' W 076°11'0 0.0
2016-Aug-25 18:17N 36°55' W 076°11'0 0.0
2016-Aug-25 17:29N 36°55' W 076°11'0 0.0
2016-Aug-25 16:32N 36°55' W 076°11'0 0.0
2016-Aug-25 15:32N 36°55' W 076°11'0 0.0
2016-Aug-25 14:33N 36°55' W 076°11'0 0.0
2016-Aug-25 13:32N 36°55' W 076°11'0 0.0
2016-Aug-24 21:25N 36°55' W 076°11'4 4.8
2016-Aug-24 20:33N 36°59' W 076°08'1110.8
2016-Aug-24 19:33N 36°54' W 075°56'9 9.2
2016-Aug-24 18:33N 36°46' W 075°51'7 2.3
2016-Aug-24 15:33N 36°52' W 075°54'14 4.4
2016-Aug-24 12:30N 36°55' W 076°11'0 0.2
2016-Aug-24 11:32N 36°55' W 076°11'0 0.0
2016-Aug-24 09:07N 36°55' W 076°11'0 0.0
2016-Aug-24 08:11N 36°55' W 076°11'0 0.0
2016-Aug-24 07:25N 36°55' W 076°11'0 0.0
2016-Aug-24 06:32N 36°55' W 076°11'0 0.0
2016-Aug-24 04:17N 36°55' W 076°11'0 0.0
2016-Aug-24 03:29N 36°55' W 076°11'0 0.0
2016-Aug-24 02:28N 36°55' W 076°11'8 1.5
2016-Aug-23 21:12N 37°03' W 076°08'0 0.2
2016-Aug-23 20:33N 37°03' W 076°08'0 0.1
2016-Aug-23 19:25N 37°02' W 076°08'4 0.9
2016-Aug-23 15:13N 36°59' W 076°10'1 0.6
2016-Aug-23 13:33N 36°58' W 076°09'4 3.4
2016-Aug-23 12:31N 36°55' W 076°11'0 0.0
2016-Aug-23 11:25N 36°55' W 076°11'0 0.0
2016-Aug-23 02:24N 36°55' W 076°11'0 0.0
2016-Aug-22 23:25N 36°55' W 076°11'0 0.0
2016-Aug-22 22:28N 36°55' W 076°11'0 0.0
2016-Aug-22 21:25N 36°55' W 076°11'0 0.0
2016-Aug-22 20:22N 36°55' W 076°11'0 0.0
2016-Aug-22 19:28N 36°55' W 076°11'0 0.0
2016-Aug-22 18:33N 36°55' W 076°11'0 0.0
2016-Aug-22 17:33N 36°55' W 076°11'0 0.0
2016-Aug-22 16:33N 36°55' W 076°11'0 0.0
2016-Aug-22 15:31N 36°55' W 076°11'0 0.0
2016-Aug-22 14:24N 36°55' W 076°11'0 0.0
2016-Aug-22 13:33N 36°55' W 076°11'0 0.0
2016-Aug-22 12:33N 36°55' W 076°11'0 0.0
2016-Aug-22 11:33N 36°55' W 076°11'0 0.0
2016-Aug-22 07:30N 36°55' W 076°11'0 0.0
2016-Aug-21 22:33N 36°55' W 076°11'0 0.0
2016-Aug-21 20:24N 36°55' W 076°11'0 0.0
2016-Aug-21 19:30N 36°55' W 076°11'5 2.5
2016-Aug-21 17:33N 36°59' W 076°06'1312.4
2016-Aug-21 16:30N 36°53' W 075°52'  
2016-Aug-18 20:29N 34°42' W 076°41'0 0.0
2016-Aug-18 19:32N 34°42' W 076°41'0 0.0
2016-Aug-18 18:32N 34°42' W 076°41'  

Dump ship's entire track history